createdAt,value
2018-05-04T00:00:37.349Z,20.1
2018-05-04T00:01:27.391Z,20
2018-05-04T00:02:17.721Z,20
2018-05-04T00:03:07.822Z,20
2018-05-04T00:03:57.582Z,20
2018-05-04T00:04:47.944Z,20
2018-05-04T00:05:38.041Z,20
2018-05-04T00:06:28.040Z,19.9
2018-05-04T00:07:18.100Z,19.9
2018-05-04T00:08:08.160Z,19.9
2018-05-04T00:08:57.972Z,19.9
2018-05-04T00:09:48.031Z,19.9
2018-05-04T00:10:38.377Z,19.9
2018-05-04T00:11:28.170Z,19.9
2018-05-04T00:12:18.214Z,19.9
2018-05-04T00:13:08.560Z,19.9
2018-05-04T00:13:58.072Z,19.9
2018-05-04T00:14:48.677Z,19.9
2018-05-04T00:15:38.743Z,19.8
2018-05-04T00:16:28.800Z,19.8
2018-05-04T00:17:18.867Z,19.8
2018-05-04T00:18:08.940Z,19.8
2018-05-04T00:18:58.709Z,19.8
2018-05-04T00:19:48.487Z,19.8
2018-05-04T00:20:39.131Z,19.8
2018-05-04T00:21:29.197Z,19.8
2018-05-04T00:22:18.995Z,19.8
2018-05-04T00:23:09.321Z,19.8
2018-05-04T00:23:59.382Z,19.7
2018-05-04T00:24:49.464Z,19.7
2018-05-04T00:25:39.525Z,19.7
2018-05-04T00:26:29.301Z,19.7
2018-05-04T00:27:19.657Z,19.7
2018-05-04T00:28:09.693Z,19.7
2018-05-04T00:28:59.591Z,19.7
2018-05-04T00:29:49.544Z,19.6
2018-05-04T00:30:39.895Z,19.6
2018-05-04T00:31:30.026Z,19.6
2018-05-04T00:32:20.013Z,19.6
2018-05-04T00:33:10.089Z,19.6
2018-05-04T00:34:00.148Z,19.6
2018-05-04T00:34:50.203Z,19.6
2018-05-04T00:35:40.079Z,19.6
2018-05-04T00:36:30.325Z,19.6
2018-05-04T00:37:20.404Z,19.6
2018-05-04T00:38:10.199Z,19.6
2018-05-04T00:39:00.275Z,19.6
2018-05-04T00:39:50.615Z,19.5
2018-05-04T00:40:40.386Z,19.6
2018-05-04T00:41:30.738Z,19.5
2018-05-04T00:42:20.803Z,19.6
2018-05-04T00:43:10.600Z,19.5
2018-05-04T00:44:00.909Z,19.5
2018-05-04T00:44:51.007Z,19.5
2018-05-04T00:45:40.492Z,19.5
2018-05-04T00:46:31.109Z,19.5
2018-05-04T00:47:21.168Z,19.4
2018-05-04T00:48:11.241Z,19.5
2018-05-04T00:49:00.755Z,19.5
2018-05-04T00:49:51.080Z,19.5
2018-05-04T00:50:40.860Z,19.5
2018-05-04T00:51:31.225Z,19.5
2018-05-04T00:52:21.582Z,19.4
2018-05-04T00:53:11.617Z,19.4
2018-05-04T00:54:01.131Z,19.4
2018-05-04T00:54:51.476Z,19.4
2018-05-04T00:55:41.809Z,19.5
2018-05-04T00:56:31.588Z,19.4
2018-05-04T00:57:21.372Z,19.4
2018-05-04T00:58:11.991Z,19.4
2018-05-04T00:59:02.057Z,19.4
2018-05-04T00:59:52.135Z,19.4
2018-05-04T01:00:42.188Z,19.4
2018-05-04T01:01:32.253Z,19.4
2018-05-04T01:02:22.332Z,19.4
2018-05-04T01:03:12.111Z,19.4
2018-05-04T01:04:02.160Z,19.4
2018-05-04T01:04:52.531Z,19.4
2018-05-04T01:05:42.312Z,19.4
2018-05-04T01:06:32.634Z,19.4
2018-05-04T01:07:22.434Z,19.4
2018-05-04T01:08:12.802Z,19.4
2018-05-04T01:09:02.831Z,19.4
2018-05-04T01:09:52.902Z,19.4
2018-05-04T01:10:42.977Z,19.4
2018-05-04T01:11:32.456Z,19.4
2018-05-04T01:12:23.107Z,19.4
2018-05-04T01:13:13.167Z,19.4
2018-05-04T01:14:02.989Z,19.4
2018-05-04T01:14:52.999Z,19.4
2018-05-04T01:15:43.362Z,19.4
2018-05-04T01:16:32.831Z,19.4
2018-05-04T01:17:23.483Z,19.4
2018-05-04T01:18:13.258Z,19.4
2018-05-04T01:19:03.351Z,19.4
2018-05-04T01:19:53.681Z,19.4
2018-05-04T01:20:43.731Z,19.4
2018-05-04T01:21:33.816Z,19.4
2018-05-04T01:22:23.848Z,19.4
2018-05-04T01:23:13.911Z,19.4
2018-05-04T01:24:03.988Z,19.4
2018-05-04T01:24:54.031Z,19.4
2018-05-04T01:25:44.096Z,19.4
2018-05-04T01:26:34.183Z,19.4
2018-05-04T01:27:24.229Z,19.4
2018-05-04T01:28:14.289Z,19.4
2018-05-04T01:29:04.345Z,19.4
2018-05-04T01:29:53.872Z,19.4
2018-05-04T01:30:44.214Z,19.4
2018-05-04T01:31:34.540Z,19.4
2018-05-04T01:32:24.610Z,19.4
2018-05-04T01:33:14.677Z,19.4
2018-05-04T01:34:04.183Z,19.4
2018-05-04T01:34:54.512Z,19.4
2018-05-04T01:35:44.872Z,19.4
2018-05-04T01:36:34.968Z,19.3
2018-05-04T01:37:24.997Z,19.4
2018-05-04T01:38:15.076Z,19.4
2018-05-04T01:39:05.119Z,19.3
2018-05-04T01:39:55.171Z,19.3
2018-05-04T01:40:44.975Z,19.3
2018-05-04T01:41:35.317Z,19.3
2018-05-04T01:42:25.385Z,19.3
2018-05-04T01:43:15.182Z,19.3
2018-05-04T01:44:05.511Z,19.3
2018-05-04T01:44:55.007Z,19.3
2018-05-04T01:45:45.622Z,19.3
2018-05-04T01:46:35.689Z,19.3
2018-05-04T01:47:25.776Z,19.3
2018-05-04T01:48:15.553Z,19.3
2018-05-04T01:49:05.614Z,19.3
2018-05-04T01:49:55.947Z,19.2
2018-05-04T01:50:46.020Z,19.2
2018-05-04T01:51:35.518Z,19.2
2018-05-04T01:52:25.884Z,19.2
2018-05-04T01:53:15.639Z,19.2
2018-05-04T01:54:06.013Z,19.2
2018-05-04T01:54:56.361Z,19.2
2018-05-04T01:55:46.108Z,19.2
2018-05-04T01:56:36.477Z,19.2
2018-05-04T01:57:26.547Z,19.2
2018-05-04T01:58:16.645Z,19.1
2018-05-04T01:59:06.658Z,19.1
2018-05-04T01:59:56.713Z,19.1
2018-05-04T02:00:46.511Z,19.1
2018-05-04T02:01:36.850Z,19.1
2018-05-04T02:02:26.904Z,19.1
2018-05-04T02:03:16.974Z,19.1
2018-05-04T02:04:07.047Z,19.1
2018-05-04T02:04:56.831Z,19.1
2018-05-04T02:05:46.894Z,19.1
2018-05-04T02:06:37.217Z,19.1
2018-05-04T02:07:27.281Z,19.1
2018-05-04T02:08:17.072Z,19.1
2018-05-04T02:09:07.439Z,19.1
2018-05-04T02:09:56.927Z,19.1
2018-05-04T02:10:47.626Z,19.1
2018-05-04T02:11:37.320Z,19.1
2018-05-04T02:12:27.390Z,19.1
2018-05-04T02:13:17.751Z,19.1
2018-05-04T02:14:07.794Z,19.1
2018-05-04T02:14:57.868Z,19.1
2018-05-04T02:15:47.945Z,19.1
2018-05-04T02:16:37.715Z,19.1
2018-05-04T02:17:28.055Z,19.1
2018-05-04T02:18:17.836Z,19
2018-05-04T02:19:08.176Z,19.1
2018-05-04T02:19:58.244Z,19
2018-05-04T02:20:48.329Z,19
2018-05-04T02:21:38.356Z,19
2018-05-04T02:22:28.152Z,19
2018-05-04T02:23:18.248Z,19
2018-05-04T02:24:08.570Z,19
2018-05-04T02:24:58.640Z,19
2018-05-04T02:25:48.148Z,19
2018-05-04T02:26:38.482Z,19
2018-05-04T02:27:28.834Z,19
2018-05-04T02:28:18.904Z,19
2018-05-04T02:29:09.033Z,18.9
2018-05-04T02:29:59.005Z,18.9
2018-05-04T02:30:49.105Z,18.9
2018-05-04T02:31:39.146Z,18.9
2018-05-04T02:32:29.191Z,18.9
2018-05-04T02:33:18.710Z,18.9
2018-05-04T02:34:08.779Z,18.9
2018-05-04T02:34:59.416Z,18.9
2018-05-04T02:35:49.186Z,18.9
2018-05-04T02:36:39.525Z,18.9
2018-05-04T02:37:29.608Z,18.9
2018-05-04T02:38:19.687Z,18.9
2018-05-04T02:39:09.737Z,18.9
2018-05-04T02:39:59.785Z,18.9
2018-05-04T02:40:49.646Z,18.9
2018-05-04T02:41:39.619Z,18.9
2018-05-04T02:42:29.967Z,18.9
2018-05-04T02:43:20.041Z,18.9
2018-05-04T02:44:09.810Z,18.9
2018-05-04T02:44:59.906Z,18.9
2018-05-04T02:45:49.991Z,18.9
2018-05-04T02:46:40.315Z,18.9
2018-05-04T02:47:30.364Z,18.9
2018-05-04T02:48:20.127Z,18.9
2018-05-04T02:49:10.476Z,18.9
2018-05-04T02:50:00.275Z,18.9
2018-05-04T02:50:50.606Z,18.9
2018-05-04T02:51:40.724Z,18.8
2018-05-04T02:52:30.463Z,18.8
2018-05-04T02:53:20.523Z,18.8
2018-05-04T02:54:10.869Z,18.8
2018-05-04T02:55:00.929Z,18.8
2018-05-04T02:55:50.730Z,18.8
2018-05-04T02:56:41.055Z,18.8
2018-05-04T02:57:30.851Z,18.8
2018-05-04T02:58:21.224Z,18.8
2018-05-04T02:59:11.045Z,18.8
2018-05-04T03:00:01.041Z,18.8
2018-05-04T03:00:51.388Z,18.8
2018-05-04T03:01:41.438Z,18.8
2018-05-04T03:02:31.216Z,18.8
2018-05-04T03:03:21.575Z,18.8
2018-05-04T03:04:11.660Z,18.8
2018-05-04T03:05:01.731Z,18.8
2018-05-04T03:05:51.766Z,18.8
2018-05-04T03:06:41.558Z,18.8
2018-05-04T03:07:31.895Z,18.8
2018-05-04T03:08:21.947Z,18.8
2018-05-04T03:09:12.033Z,18.8
2018-05-04T03:10:02.090Z,18.8
2018-05-04T03:10:51.884Z,18.8
2018-05-04T03:11:42.202Z,18.8
2018-05-04T03:12:32.282Z,18.8
2018-05-04T03:13:22.086Z,18.8
2018-05-04T03:14:12.455Z,18.8
2018-05-04T03:15:02.450Z,18.8
2018-05-04T03:15:51.662Z,18.8
2018-05-04T03:16:42.603Z,18.8
2018-05-04T03:17:32.639Z,18.8
2018-05-04T03:18:22.462Z,18.8
2018-05-04T03:19:12.774Z,18.8
2018-05-04T03:20:02.837Z,18.8
2018-05-04T03:20:52.632Z,18.9
2018-05-04T03:21:42.977Z,18.8
2018-05-04T03:22:33.024Z,18.9
2018-05-04T03:23:22.895Z,18.9
2018-05-04T03:24:13.165Z,18.9
2018-05-04T03:25:03.218Z,18.9
2018-05-04T03:25:53.284Z,18.9
2018-05-04T03:26:43.085Z,18.9
2018-05-04T03:27:33.421Z,18.9
2018-05-04T03:28:23.173Z,18.9
2018-05-04T03:29:13.574Z,18.9
2018-05-04T03:30:03.327Z,18.9
2018-05-04T03:30:53.677Z,18.9
2018-05-04T03:31:43.463Z,19
2018-05-04T03:32:33.528Z,19
2018-05-04T03:33:23.573Z,19
2018-05-04T03:34:13.623Z,19
2018-05-04T03:35:03.996Z,19.1
2018-05-04T03:35:54.055Z,19.1
2018-05-04T03:36:44.105Z,19.1
2018-05-04T03:37:34.179Z,19.1
2018-05-04T03:38:24.351Z,19.1
2018-05-04T03:39:14.034Z,19.2
2018-05-04T03:40:04.393Z,19.2
2018-05-04T03:40:54.438Z,19.3
2018-05-04T03:41:44.246Z,19.3
2018-05-04T03:42:34.261Z,19.3
2018-05-04T03:43:24.621Z,19.3
2018-05-04T03:44:14.390Z,19.3
2018-05-04T03:45:04.476Z,19.4
2018-05-04T03:45:54.539Z,19.4
2018-05-04T03:46:44.881Z,19.4
2018-05-04T03:47:34.943Z,19.4
2018-05-04T03:48:24.999Z,19.5
2018-05-04T03:49:14.774Z,19.6
2018-05-04T03:50:04.867Z,19.6
2018-05-04T03:50:55.182Z,19.6
2018-05-04T03:51:44.992Z,19.6
2018-05-04T03:52:35.326Z,19.7
2018-05-04T03:53:25.382Z,19.7
2018-05-04T03:54:14.892Z,19.8
2018-05-04T03:55:05.507Z,19.8
2018-05-04T03:55:55.031Z,19.8
2018-05-04T03:56:45.655Z,19.8
2018-05-04T03:57:35.414Z,19.8
2018-05-04T03:58:25.469Z,19.9
2018-05-04T03:59:15.546Z,19.9
2018-05-04T04:00:05.629Z,19.9
2018-05-04T04:00:55.948Z,19.9
2018-05-04T04:01:45.759Z,19.9
2018-05-04T04:02:36.272Z,20
2018-05-04T04:03:25.915Z,20.1
2018-05-04T04:04:15.666Z,20.1
2018-05-04T04:05:06.019Z,20.1
2018-05-04T04:05:56.367Z,20.1
2018-05-04T04:06:46.407Z,20.1
2018-05-04T04:07:36.194Z,20.2
2018-05-04T04:08:26.541Z,20.2
2018-05-04T04:09:16.333Z,20.3
2018-05-04T04:10:06.664Z,20.3
2018-05-04T04:10:56.720Z,20.3
2018-05-04T04:11:46.232Z,20.3
2018-05-04T04:12:36.948Z,20.3
2018-05-04T04:13:26.910Z,20.4
2018-05-04T04:14:16.695Z,20.4
2018-05-04T04:15:07.056Z,20.4
2018-05-04T04:15:57.137Z,20.4
2018-05-04T04:16:47.172Z,20.4
2018-05-04T04:17:37.227Z,20.4
2018-05-04T04:18:27.292Z,20.4
2018-05-04T04:19:17.068Z,20.4
2018-05-04T04:20:07.447Z,20.4
2018-05-04T04:20:57.487Z,20.5
2018-05-04T04:21:47.336Z,20.5
2018-05-04T04:22:37.632Z,20.5
2018-05-04T04:23:27.679Z,20.5
2018-05-04T04:24:17.747Z,20.5
2018-05-04T04:25:07.809Z,20.5
2018-05-04T04:25:57.860Z,20.5
2018-05-04T04:26:47.731Z,20.6
2018-05-04T04:27:37.535Z,20.6
2018-05-04T04:28:28.072Z,20.6
2018-05-04T04:29:17.839Z,20.6
2018-05-04T04:30:07.908Z,20.6
2018-05-04T04:30:58.248Z,20.6
2018-05-04T04:31:48.399Z,20.6
2018-05-04T04:32:38.391Z,20.6
2018-05-04T04:33:28.434Z,20.6
2018-05-04T04:34:18.515Z,20.6
2018-05-04T04:35:08.571Z,20.6
2018-05-04T04:35:58.638Z,20.6
2018-05-04T04:36:48.424Z,20.6
2018-05-04T04:37:38.492Z,20.7
2018-05-04T04:38:28.816Z,20.7
2018-05-04T04:39:18.630Z,20.7
2018-05-04T04:40:08.979Z,20.8
2018-05-04T04:40:58.998Z,20.8
2018-05-04T04:41:49.075Z,20.8
2018-05-04T04:42:38.867Z,20.9
2018-05-04T04:43:28.738Z,20.9
2018-05-04T04:44:19.003Z,21
2018-05-04T04:45:09.073Z,21.1
2018-05-04T04:45:58.853Z,21.1
2018-05-04T04:48:29.692Z,21.2
2018-05-04T04:49:19.371Z,21.3
2018-05-04T04:50:09.705Z,21.3
2018-05-04T04:50:59.486Z,21.3
2018-05-04T04:51:49.832Z,21.3
2018-05-04T04:52:39.415Z,21.4
2018-05-04T04:53:29.685Z,21.4
2018-05-04T04:54:20.057Z,21.4
2018-05-04T04:55:09.808Z,21.5
2018-05-04T04:56:00.163Z,21.6
2018-05-04T04:56:50.213Z,21.6
2018-05-04T04:57:40.011Z,21.6
2018-05-04T04:58:30.369Z,21.6
2018-05-04T04:59:20.445Z,21.7
2018-05-04T05:00:10.476Z,21.7
2018-05-04T05:01:00.536Z,21.7
2018-05-04T05:01:50.677Z,21.7
2018-05-04T05:02:40.673Z,21.7
2018-05-04T05:03:30.462Z,21.7
2018-05-04T05:04:20.525Z,21.8
2018-05-04T05:05:10.571Z,21.8
2018-05-04T05:06:00.635Z,21.8
2018-05-04T05:06:50.685Z,21.8
2018-05-04T05:07:41.034Z,21.8
2018-05-04T05:08:31.107Z,21.8
2018-05-04T05:09:20.879Z,21.9
2018-05-04T05:10:10.958Z,21.9
2018-05-04T05:11:01.380Z,21.9
2018-05-04T05:11:51.350Z,21.9
2018-05-04T05:12:41.503Z,22
2018-05-04T05:13:31.932Z,22
2018-05-04T05:14:21.557Z,22.1
2018-05-04T05:15:11.338Z,22.1
2018-05-04T05:16:01.676Z,22.2
2018-05-04T05:16:51.455Z,22.2
2018-05-04T05:17:41.519Z,22.3
2018-05-04T05:18:31.578Z,22.3
2018-05-04T05:19:21.931Z,22.4
2018-05-04T05:20:11.712Z,22.4
2018-05-04T05:21:02.106Z,22.5
2018-05-04T05:21:52.446Z,22.6
2018-05-04T05:22:41.909Z,22.6
2018-05-04T05:23:31.976Z,22.7
2018-05-04T05:24:22.324Z,22.7
2018-05-04T05:25:12.113Z,22.8
2018-05-04T05:26:02.169Z,22.8
2018-05-04T05:26:52.496Z,22.9
2018-05-04T05:27:42.301Z,22.9
2018-05-04T05:28:32.661Z,22.9
2018-05-04T05:29:22.705Z,23
2018-05-04T05:30:12.796Z,23.1
2018-05-04T05:31:02.833Z,23.1
2018-05-04T05:31:52.606Z,23.1
2018-05-04T05:32:42.398Z,23.2
2018-05-04T05:33:33.011Z,23.2
2018-05-04T05:34:23.086Z,23.3
2018-05-04T05:35:13.156Z,23.3
2018-05-04T05:36:03.228Z,23.3
2018-05-04T05:36:52.705Z,23.3
2018-05-04T05:37:43.355Z,23.4
2018-05-04T05:38:32.841Z,23.4
2018-05-04T05:39:23.200Z,23.4
2018-05-04T05:40:13.552Z,23.4
2018-05-04T05:41:03.619Z,23.5
2018-05-04T05:41:53.395Z,23.6
2018-05-04T05:42:43.741Z,23.6
2018-05-04T05:43:33.797Z,23.7
2018-05-04T05:44:23.580Z,23.8
2018-05-04T05:45:13.922Z,23.9
2018-05-04T05:46:03.717Z,24
2018-05-04T05:46:53.766Z,24.1
2018-05-04T05:47:43.830Z,24.1
2018-05-04T05:48:34.205Z,24.2
2018-05-04T05:49:24.265Z,24.3
2018-05-04T05:50:14.297Z,24.4
2018-05-04T05:51:03.509Z,24.4
2018-05-04T05:51:54.235Z,24.4
2018-05-04T05:52:44.503Z,24.5
2018-05-04T05:53:34.292Z,24.5
2018-05-04T05:54:24.321Z,24.6
2018-05-04T05:55:14.690Z,24.6
2018-05-04T05:56:04.469Z,24.6
2018-05-04T05:56:54.525Z,24.7
2018-05-04T05:57:44.848Z,24.8
2018-05-04T05:58:34.933Z,24.8
2018-05-04T05:59:24.735Z,24.9
2018-05-04T06:00:15.050Z,24.9
2018-05-04T06:01:04.866Z,25.1
2018-05-04T06:01:55.258Z,25.1
2018-05-04T06:02:44.980Z,25.2
2018-05-04T06:03:35.315Z,25.3
2018-05-04T06:05:34.408Z,25.6
2018-05-04T06:06:24.960Z,25.6
2018-05-04T06:07:14.743Z,25.6
2018-05-04T06:08:05.094Z,25.8
2018-05-04T06:08:55.133Z,25.8
2018-05-04T06:09:45.281Z,25.9
2018-05-04T06:10:35.284Z,25.9
2018-05-04T06:11:25.069Z,26
2018-05-04T06:12:15.422Z,26.1
2018-05-04T06:13:05.496Z,26.1
2018-05-04T06:13:55.538Z,26.2
2018-05-04T06:14:45.614Z,26.3
2018-05-04T06:15:35.679Z,26.3
2018-05-04T06:16:25.735Z,26.3
2018-05-04T06:17:15.811Z,26.4
2018-05-04T06:18:05.621Z,26.4
2018-05-04T06:18:55.923Z,26.6
2018-05-04T06:19:46.003Z,26.6
2018-05-04T06:20:36.042Z,26.6
2018-05-04T06:21:26.131Z,26.7
2018-05-04T06:22:15.926Z,26.7
2018-05-04T06:23:06.231Z,26.7
2018-05-04T06:23:56.303Z,26.8
2018-05-04T06:24:46.392Z,26.8
2018-05-04T06:25:36.164Z,26.8
2018-05-04T06:26:25.914Z,26.9
2018-05-04T06:27:16.564Z,26.9
2018-05-04T06:28:06.621Z,27
2018-05-04T06:28:56.699Z,27.1
2018-05-04T06:29:46.492Z,27.1
2018-05-04T06:30:36.815Z,27.2
2018-05-04T06:31:26.886Z,27.3
2018-05-04T06:32:16.666Z,27.4
2018-05-04T06:33:06.732Z,27.4
2018-05-04T06:33:57.254Z,27.5
2018-05-04T06:34:47.124Z,27.6
2018-05-04T06:35:37.204Z,27.7
2018-05-04T06:36:26.985Z,27.8
2018-05-04T06:37:17.343Z,27.9
2018-05-04T06:38:07.425Z,27.9
2018-05-04T06:38:56.881Z,28
2018-05-04T06:39:47.889Z,28.2
2018-05-04T06:40:37.591Z,28.4
2018-05-04T06:41:27.651Z,28.6
2018-05-04T06:42:17.729Z,28.8
2018-05-04T06:43:07.762Z,28.9
2018-05-04T06:43:57.859Z,28.9
2018-05-04T06:44:47.321Z,28.9
2018-05-04T06:45:37.954Z,29
2018-05-04T06:46:28.038Z,29.1
2018-05-04T06:47:17.522Z,29.4
2018-05-04T06:48:08.186Z,29.9
2018-05-04T06:48:58.220Z,30.4
2018-05-04T06:49:48.011Z,30.7
2018-05-04T06:50:38.334Z,30.9
2018-05-04T06:51:28.418Z,31.1
2018-05-04T06:52:18.489Z,31.1
2018-05-04T06:53:07.974Z,31.3
2018-05-04T06:53:58.613Z,31.4
2018-05-04T06:54:48.400Z,31.5
2018-05-04T06:55:38.728Z,31.4
2018-05-04T06:56:28.583Z,31.4
2018-05-04T06:57:18.579Z,31.4
2018-05-04T06:58:08.649Z,31.4
2018-05-04T06:58:59.022Z,31.4
2018-05-04T06:59:49.058Z,31.4
2018-05-04T07:00:39.165Z,31.4
2018-05-04T07:01:29.191Z,31.5
2018-05-04T07:02:18.979Z,31.5
2018-05-04T07:03:08.737Z,31.5
2018-05-04T07:03:59.411Z,31.5
2018-05-04T07:04:48.896Z,31.5
2018-05-04T07:05:39.499Z,31.4
2018-05-04T07:06:29.564Z,31.4
2018-05-04T07:07:19.146Z,31.5
2018-05-04T07:08:09.702Z,31.4
2018-05-04T07:09:00.014Z,31.4
2018-05-04T07:09:49.834Z,31.4
2018-05-04T07:10:39.615Z,31.4
2018-05-04T07:11:29.669Z,31.3
2018-05-04T07:12:20.009Z,31.2
2018-05-04T07:13:09.806Z,31.1
2018-05-04T07:13:59.571Z,31
2018-05-04T07:14:49.937Z,30.9
2018-05-04T07:15:39.697Z,30.9
2018-05-04T07:16:30.408Z,30.9
2018-05-04T07:17:20.491Z,30.9
2018-05-04T07:18:10.458Z,30.9
2018-05-04T07:19:00.254Z,31.1
2018-05-04T07:19:50.596Z,31.2
2018-05-04T07:20:40.676Z,31.4
2018-05-04T07:21:30.720Z,31.6
2018-05-04T07:22:20.512Z,31.8
2018-05-04T07:23:10.843Z,31.9
2018-05-04T07:24:00.918Z,31.9
2018-05-04T07:24:50.975Z,32
2018-05-04T07:25:41.048Z,32.1
2018-05-04T07:26:31.160Z,32.3
2018-05-04T07:27:20.339Z,32.4
2018-05-04T07:28:10.978Z,32.7
2018-05-04T07:29:01.311Z,33
2018-05-04T07:29:51.393Z,33.5
2018-05-04T07:30:41.516Z,34.1
2018-05-04T07:31:31.498Z,34.6
2018-05-04T07:32:21.579Z,34.9
2018-05-04T07:33:11.086Z,34.9
2018-05-04T07:34:01.705Z,34.8
2018-05-04T07:34:51.791Z,34.8
2018-05-04T07:35:41.828Z,34.8
2018-05-04T07:36:31.314Z,34.9
2018-05-04T07:37:21.974Z,35.1
2018-05-04T07:38:12.008Z,35.3
2018-05-04T07:39:01.524Z,35.4
2018-05-04T07:39:51.965Z,35.5
2018-05-04T07:40:42.204Z,35.6
2018-05-04T07:41:32.274Z,35.6
2018-05-04T07:42:21.759Z,35.6
2018-05-04T07:43:12.718Z,35.6
2018-05-04T07:44:02.206Z,35.4
2018-05-04T07:44:51.968Z,35.4
2018-05-04T07:45:42.027Z,35.4
2018-05-04T07:46:32.662Z,35.4
2018-05-04T07:47:22.725Z,35.3
2018-05-04T07:48:12.815Z,35.3
2018-05-04T07:49:02.962Z,35.3
2018-05-04T07:49:52.926Z,35.3
2018-05-04T07:50:43.001Z,35.3
2018-05-04T07:51:33.075Z,35.4
2018-05-04T07:52:23.101Z,35.4
2018-05-04T07:53:13.194Z,35.5
2018-05-04T07:54:03.007Z,35.6
2018-05-04T07:54:52.731Z,35.7
2018-05-04T07:55:43.378Z,35.8
2018-05-04T07:56:33.153Z,35.8
2018-05-04T07:57:23.234Z,35.8
2018-05-04T07:58:13.274Z,35.8
2018-05-04T07:59:03.618Z,35.9
2018-05-04T07:59:53.694Z,36
2018-05-04T08:00:43.764Z,36.1
2018-05-04T08:01:33.823Z,36.2
2018-05-04T08:02:23.884Z,36.3
2018-05-04T08:03:13.938Z,36.3
2018-05-04T08:04:04.026Z,36.3
2018-05-04T08:04:54.074Z,36.3
2018-05-04T08:05:43.856Z,36.2
2018-05-04T08:06:34.225Z,36.1
2018-05-04T08:07:24.286Z,36.1
2018-05-04T08:08:14.326Z,36.1
2018-05-04T08:09:04.146Z,36.1
2018-05-04T08:09:54.476Z,36.1
2018-05-04T08:10:44.530Z,36.1
2018-05-04T08:11:34.328Z,36.1
2018-05-04T08:12:24.084Z,36.1
2018-05-04T08:13:14.722Z,36.1
2018-05-04T08:14:04.808Z,36.1
2018-05-04T08:14:54.406Z,36.2
2018-05-04T08:15:44.635Z,36.3
2018-05-04T08:16:34.716Z,36.3
2018-05-04T08:17:25.058Z,36.3
2018-05-04T08:18:14.853Z,36.3
2018-05-04T08:19:04.637Z,36.4
2018-05-04T08:19:55.240Z,36.5
2018-05-04T08:20:45.305Z,36.7
2018-05-04T08:21:35.090Z,36.9
2018-05-04T08:22:25.172Z,36.9
2018-05-04T08:23:14.935Z,37
2018-05-04T08:24:05.572Z,37.1
2018-05-04T08:24:55.351Z,37.3
2018-05-04T08:25:45.711Z,37.4
2018-05-04T08:26:35.780Z,37.5
2018-05-04T08:27:26.077Z,37.5
2018-05-04T08:28:15.030Z,37.4
2018-05-04T08:29:05.967Z,37.4
2018-05-04T08:29:55.452Z,37.5
2018-05-04T08:30:45.830Z,37.7
2018-05-04T08:31:36.162Z,38.3
2018-05-04T08:32:26.225Z,39.1
2018-05-04T08:33:16.110Z,39.9
2018-05-04T08:34:05.501Z,40.8
2018-05-04T08:34:56.412Z,41.6
2018-05-04T08:35:46.500Z,42.1
2018-05-04T08:36:36.263Z,42
2018-05-04T08:37:26.617Z,41.7
2018-05-04T08:38:16.396Z,41.6
2018-05-04T08:39:06.182Z,41.8
2018-05-04T08:39:56.511Z,42.1
2018-05-04T08:40:46.752Z,42.4
2018-05-04T08:41:36.960Z,43.1
2018-05-04T08:42:26.975Z,43.5
2018-05-04T08:43:17.691Z,43.7
2018-05-04T08:44:07.122Z,43.8
2018-05-04T08:44:56.925Z,43.4
2018-05-04T08:45:47.242Z,42.9
2018-05-04T08:46:37.048Z,42.5
2018-05-04T08:47:27.100Z,42
2018-05-04T08:48:18.226Z,41.7
2018-05-04T08:49:06.998Z,41.4
2018-05-04T08:49:57.569Z,41.3
2018-05-04T08:50:47.667Z,41.1
2018-05-04T08:51:37.693Z,40.9
2018-05-04T08:52:27.477Z,40.6
2018-05-04T08:53:17.823Z,40.3
2018-05-04T08:54:07.903Z,40.1
2018-05-04T08:54:57.963Z,39.8
2018-05-04T08:55:47.738Z,39.5
2018-05-04T08:56:37.816Z,39.3
2018-05-04T08:57:28.139Z,39.1
2018-05-04T08:58:18.225Z,38.9
2018-05-04T08:59:08.289Z,38.8
2018-05-04T08:59:58.347Z,38.6
2018-05-04T09:00:48.421Z,38.5
2018-05-04T09:01:38.462Z,38.4
2018-05-04T09:02:28.524Z,38.3
2018-05-04T09:03:18.604Z,38.2
2018-05-04T09:04:08.697Z,38.1
2018-05-04T09:04:58.742Z,38
2018-05-04T09:05:48.524Z,37.9
2018-05-04T09:06:38.881Z,37.9
2018-05-04T09:07:29.015Z,37.9
2018-05-04T09:08:19.012Z,38
2018-05-04T09:09:08.762Z,38.2
2018-05-04T09:09:59.136Z,38.5
2018-05-04T09:10:49.178Z,38.8
2018-05-04T09:11:39.239Z,39.1
2018-05-04T09:12:29.037Z,39.6
2018-05-04T09:13:19.409Z,39.9
2018-05-04T09:14:09.182Z,40.4
2018-05-04T09:14:59.511Z,40.8
2018-05-04T09:15:49.594Z,41.3
2018-05-04T09:16:39.649Z,41.7
2018-05-04T09:17:29.421Z,42.1
2018-05-04T09:18:19.507Z,42.4
2018-05-04T09:19:09.552Z,42.8
2018-05-04T09:19:59.920Z,43.3
2018-05-04T09:20:49.702Z,43.7
2018-05-04T09:21:39.748Z,44.1
2018-05-04T09:22:29.838Z,44.6
2018-05-04T09:23:20.163Z,45.3
2018-05-04T09:24:10.240Z,45.8
2018-05-04T09:25:00.287Z,46.3
2018-05-04T09:25:50.345Z,47
2018-05-04T09:26:40.148Z,47.7
2018-05-04T09:27:30.494Z,48.3
2018-05-04T09:28:20.282Z,48.9
2018-05-04T09:29:10.344Z,49.3
2018-05-04T09:30:00.411Z,49.6
2018-05-04T09:30:51.409Z,49.9
2018-05-04T09:31:40.813Z,50.1
2018-05-04T09:32:30.606Z,50.3
2018-05-04T09:33:20.945Z,50.6
2018-05-04T09:34:11.017Z,50.9
2018-05-04T09:35:01.101Z,51.4
2018-05-04T09:36:40.958Z,52.4
2018-05-04T09:37:31.295Z,52.9
2018-05-04T09:38:21.347Z,53.4
2018-05-04T09:39:11.405Z,53.9
2018-05-04T09:40:01.497Z,54.1
2018-05-04T09:40:51.538Z,54.3
2018-05-04T09:41:41.138Z,54.3
2018-05-04T09:42:31.668Z,54.4
2018-05-04T09:43:21.942Z,54.4
2018-05-04T09:44:11.804Z,54.5
2018-05-04T09:45:01.881Z,54.5
2018-05-04T09:45:51.942Z,54.4
2018-05-04T09:46:41.726Z,54.3
2018-05-04T09:47:32.102Z,54.1
2018-05-04T09:48:22.138Z,53.9
2018-05-04T09:49:12.444Z,53.7
2018-05-04T09:50:02.267Z,53.5
2018-05-04T09:50:52.330Z,53.3
2018-05-04T09:51:42.381Z,52.9
2018-05-04T09:52:32.461Z,52.7
2018-05-04T09:54:12.031Z,52.1
2018-05-04T09:55:02.659Z,51.9
2018-05-04T09:55:52.876Z,51.7
2018-05-04T09:56:42.799Z,51.6
2018-05-04T09:57:32.570Z,51.6
2018-05-04T09:58:22.905Z,51.7
2018-05-04T09:59:12.705Z,51.7
2018-05-04T10:00:03.055Z,51.7
2018-05-04T10:00:53.128Z,51.5
2018-05-04T10:01:43.241Z,51.3
2018-05-04T10:02:33.242Z,51.1
2018-05-04T10:03:23.321Z,50.8
2018-05-04T10:04:13.372Z,50.6
2018-05-04T10:05:03.447Z,50.4
2018-05-04T10:05:53.243Z,50.3
2018-05-04T10:06:43.589Z,50.1
2018-05-04T10:07:33.651Z,49.9
2018-05-04T10:08:23.707Z,49.8
2018-05-04T10:09:13.959Z,49.6
2018-05-04T10:10:03.859Z,49.4
2018-05-04T10:10:53.623Z,49.3
2018-05-04T10:11:43.963Z,49.1
2018-05-04T10:12:34.047Z,49.1
2018-05-04T10:13:24.097Z,49
2018-05-04T10:14:14.161Z,49
2018-05-04T10:15:03.959Z,49.1
2018-05-04T10:15:54.289Z,49.4
2018-05-04T10:16:44.358Z,49.7
2018-05-04T10:17:34.449Z,49.9
2018-05-04T10:18:24.229Z,50.2
2018-05-04T10:19:14.561Z,50.4
2018-05-04T10:20:04.360Z,50.8
2018-05-04T10:20:54.727Z,51.2
2018-05-04T10:21:44.765Z,51.6
2018-05-04T10:22:34.816Z,52
2018-05-04T10:24:14.196Z,52.6
2018-05-04T10:25:05.011Z,52.9
2018-05-04T10:25:55.075Z,53.3
2018-05-04T10:26:44.893Z,53.6
2018-05-04T10:27:34.922Z,53.8
2018-05-04T10:28:25.014Z,53.9
2018-05-04T10:29:15.155Z,54.2
2018-05-04T10:30:05.421Z,54.4
2018-05-04T10:30:55.867Z,54.6
2018-05-04T10:31:45.528Z,54.9
2018-05-04T10:32:35.050Z,55.1
2018-05-04T10:33:25.662Z,55.1
2018-05-04T10:34:15.450Z,55.1
2018-05-04T10:35:05.852Z,55
2018-05-04T10:35:55.955Z,54.9
2018-05-04T10:36:45.644Z,54.9
2018-05-04T10:37:35.698Z,54.9
2018-05-04T10:38:26.395Z,55.1
2018-05-04T10:39:16.120Z,55.5
2018-05-04T10:40:05.922Z,55.8
2018-05-04T10:40:55.984Z,56.1
2018-05-04T10:41:46.337Z,56.4
2018-05-04T10:42:36.409Z,56.7
2018-05-04T10:43:26.491Z,56.9
2018-05-04T10:44:16.264Z,57.1
2018-05-04T10:45:06.878Z,57.1
2018-05-04T10:45:56.656Z,57
2018-05-04T10:46:46.718Z,56.5
2018-05-04T10:47:36.782Z,55.6
2018-05-04T10:48:26.585Z,54.6
2018-05-04T10:49:16.409Z,53.6
2018-05-04T10:50:07.048Z,52.7
2018-05-04T10:51:46.547Z,51.4
2018-05-04T10:52:37.184Z,50.9
2018-05-04T10:53:27.261Z,50.5
2018-05-04T10:54:17.033Z,50.1
2018-05-04T10:55:07.374Z,49.8
2018-05-04T10:55:57.569Z,49.4
2018-05-04T10:56:47.584Z,49.1
2018-05-04T10:57:37.575Z,49.1
2018-05-04T10:58:27.644Z,49.3
2018-05-04T10:59:17.702Z,49.4
2018-05-04T11:00:07.773Z,49.7
2018-05-04T11:00:57.272Z,49.9
2018-05-04T11:01:47.903Z,49.9
2018-05-04T11:02:37.693Z,49.9
2018-05-04T11:03:28.044Z,50
2018-05-04T11:04:18.129Z,50
2018-05-04T11:05:08.175Z,50.1
2018-05-04T11:05:58.252Z,50.3
2018-05-04T11:06:48.325Z,50.4
2018-05-04T11:07:38.362Z,50.5
2018-05-04T11:08:28.448Z,50.5
2018-05-04T11:09:18.516Z,50.5
2018-05-04T11:10:08.559Z,50.5
2018-05-04T11:10:58.630Z,50.3
2018-05-04T11:11:47.838Z,50.1
2018-05-04T11:12:38.204Z,49.8
2018-05-04T11:13:28.807Z,49.5
2018-05-04T11:14:18.897Z,49.4
2018-05-04T11:15:08.948Z,49.3